Time;durP1;ratioP1;P1;durP2;ratioP2;P2;SDS_P1;SDS_P2;PMS_P1;PMS_P2;Temp;Humidity;BMP_temperature;BMP_pressure;BME280_temperature;BME280_humidity;BME280_pressure;Samples;Min_cycle;Max_cycle;Signal;HPM_P1;HPM_P2
2021/05/01 00:01:37;;;;;;;19.17;10.25;;;487.30;1715.20;;;;;;5014118;28;20411;-74
2021/05/01 00:04:04;;;;;;;17.27;8.95;;;487.20;1715.20;;;;;;5013803;28;20459;-68
2021/05/01 00:06:30;;;;;;;15.70;8.25;;;487.20;1715.20;;;;;;5013524;28;20469;-74
2021/05/01 00:08:56;;;;;;;20.67;10.48;;;487.20;1715.20;;;;;;5013581;28;20455;-74
2021/05/01 00:11:23;;;;;;;21.85;10.85;;;486.90;1766.40;;;;;;5013946;28;20398;-73
2021/05/01 00:13:50;;;;;;;19.88;10.52;;;487.00;1766.40;;;;;;5013567;28;20510;-74
2021/05/01 00:16:16;;;;;;;16.88;10.10;;;487.10;1766.40;;;;;;5013453;28;20363;-66
2021/05/01 00:18:42;;;;;;;17.30;9.48;;;486.90;1766.40;;;;;;5013491;28;20374;-65
2021/05/01 00:21:08;;;;;;;21.38;11.00;;;486.90;1766.40;;;;;;5013489;28;20025;-69
2021/05/01 00:23:34;;;;;;;15.95;10.57;;;486.90;1766.40;;;;;;5013449;28;20028;-68
2021/05/01 00:26:01;;;;;;;15.93;9.88;;;486.90;1740.80;;;;;;5013965;28;20025;-67
2021/05/01 00:28:27;;;;;;;17.50;10.43;;;487.00;1740.80;;;;;;5005524;28;20458;-69
2021/05/01 00:30:54;;;;;;;18.08;9.40;;;487.00;1766.40;;;;;;5033078;28;20481;-70
2021/05/01 00:33:20;;;;;;;14.45;9.95;;;486.90;1740.80;;;;;;5033177;28;20463;-66
2021/05/01 00:35:46;;;;;;;20.05;10.10;;;487.10;1740.80;;;;;;5032985;28;20476;-66
2021/05/01 00:38:12;;;;;;;13.60;9.32;;;487.10;1715.20;;;;;;5033105;28;20362;-65
2021/05/01 00:40:38;;;;;;;14.48;9.50;;;487.00;1740.80;;;;;;5033081;28;20362;-65
2021/05/01 00:43:04;;;;;;;19.00;10.25;;;486.90;1740.80;;;;;;5032962;28;20439;-66
2021/05/01 00:45:30;;;;;;;16.77;9.20;;;486.90;1740.80;;;;;;5033025;28;20417;-65
2021/05/01 00:47:57;;;;;;;17.85;10.60;;;486.90;1740.80;;;;;;5032907;28;20075;-73
2021/05/01 00:50:23;;;;;;;18.25;10.15;;;486.80;1766.40;;;;;;5032881;28;20379;-71
2021/05/01 00:52:49;;;;;;;16.48;9.75;;;486.80;1766.40;;;;;;5035890;28;20482;-73
2021/05/01 00:55:15;;;;;;;14.90;9.70;;;486.80;1766.40;;;;;;5036395;28;20417;-65
2021/05/01 00:57:42;;;;;;;16.33;9.75;;;486.80;1766.40;;;;;;5036394;28;20021;-65
2021/05/01 01:01:00;;;;;;;17.88;10.32;;;486.80;1766.40;;;;;;5036337;28;20378;-66
2021/05/01 01:02:59;;;;;;;20.67;10.77;;;486.80;1766.40;;;;;;5028219;28;20382;-65
2021/05/01 01:05:25;;;;;;;16.10;10.32;;;486.70;1766.40;;;;;;5036325;28;20410;-67
2021/05/01 01:07:52;;;;;;;18.10;10.70;;;486.70;1766.40;;;;;;5036583;28;20034;-73
2021/05/01 01:10:18;;;;;;;15.98;10.85;;;486.70;1766.40;;;;;;5036242;28;20401;-65
2021/05/01 01:12:44;;;;;;;18.67;11.23;;;486.60;1792.00;;;;;;5036274;28;20374;-66
2021/05/01 01:15:21;;;;;;;17.17;10.80;;;486.60;1792.00;;;;;;5036127;28;20639;-65
2021/05/01 01:17:48;;;;;;;17.23;11.18;;;486.60;1792.00;;;;;;5036380;28;20033;-66
2021/05/01 01:20:14;;;;;;;17.30;11.18;;;486.60;1792.00;;;;;;5035935;28;20405;-65
2021/05/01 01:22:40;;;;;;;20.25;10.70;;;486.60;1792.00;;;;;;5036302;28;20363;-65
2021/05/01 01:25:07;;;;;;;17.63;11.50;;;486.50;1792.00;;;;;;5035911;28;20366;-65
2021/05/01 01:27:33;;;;;;;20.38;11.18;;;486.60;1792.00;;;;;;5035707;28;20393;-66
2021/05/01 01:29:59;;;;;;;21.27;10.73;;;486.60;1792.00;;;;;;5016456;28;20368;-67
2021/05/01 01:32:26;;;;;;;16.77;10.48;;;486.50;1792.00;;;;;;5015912;28;20363;-65
2021/05/01 01:34:52;;;;;;;14.13;8.70;;;486.50;1792.00;;;;;;5015847;28;20348;-73
2021/05/01 01:37:18;;;;;;;18.20;9.30;;;486.60;1766.40;;;;;;5015977;28;20379;-66
2021/05/01 01:39:44;;;;;;;15.77;8.50;;;486.50;1766.40;;;;;;4998253;28;20446;-66
2021/05/01 01:42:10;;;;;;;15.25;8.25;;;486.60;1766.40;;;;;;5016233;28;20351;-66
2021/05/01 01:44:37;;;;;;;12.40;8.30;;;486.60;1766.40;;;;;;5015701;28;20402;-65
2021/05/01 01:47:03;;;;;;;14.88;8.00;;;486.60;1766.40;;;;;;5016160;28;20333;-73
2021/05/01 01:49:29;;;;;;;16.02;7.78;;;486.60;1740.80;;;;;;5015618;28;20363;-66
2021/05/01 01:51:55;;;;;;;15.93;7.82;;;486.70;1740.80;;;;;;5015609;28;20375;-73
2021/05/01 01:54:21;;;;;;;14.95;7.85;;;486.70;1740.80;;;;;;5015418;28;20463;-73
2021/05/01 01:56:47;;;;;;;14.23;8.18;;;486.70;1715.20;;;;;;5015363;28;20371;-74
2021/05/01 01:59:13;;;;;;;14.10;7.72;;;486.60;1740.80;;;;;;5015657;28;20450;-66
2021/05/01 02:01:39;;;;;;;12.57;8.63;;;486.60;1766.40;;;;;;5015418;28;20025;-74
2021/05/01 02:04:06;;;;;;;16.60;8.77;;;486.50;1766.40;;;;;;5015157;28;20029;-73
2021/05/01 02:06:32;;;;;;;15.45;9.45;;;486.50;1766.40;;;;;;5015312;28;20422;-66
2021/05/01 02:08:58;;;;;;;14.80;9.60;;;486.50;1792.00;;;;;;5015193;28;20348;-73
2021/05/01 02:11:24;;;;;;;17.50;10.35;;;486.50;1792.00;;;;;;4997650;28;20370;-66
2021/05/01 02:13:50;;;;;;;16.52;10.05;;;486.40;1817.60;;;;;;5015403;28;20367;-74
2021/05/01 02:16:16;;;;;;;16.90;10.10;;;486.40;1817.60;;;;;;5015046;28;20352;-66
2021/05/01 02:18:42;;;;;;;16.30;9.60;;;486.40;1817.60;;;;;;5015051;28;20367;-66
2021/05/01 02:21:08;;;;;;;17.67;10.05;;;486.40;1817.60;;;;;;5015038;28;20431;-74
2021/05/01 02:23:35;;;;;;;15.40;9.75;;;461.70;1817.60;;;;;;5014916;28;20355;-66
2021/05/01 02:26:01;;;;;;;15.20;10.02;;;461.70;1817.60;;;;;;5014965;28;20360;-65
2021/05/01 02:28:28;;;;;;;14.02;9.60;;;461.60;1817.60;;;;;;5017029;28;20112;-66
2021/05/01 02:30:54;;;;;;;12.80;9.32;;;461.60;1817.60;;;;;;4997375;28;20386;-66
2021/05/01 02:33:20;;;;;;;14.75;9.18;;;461.60;1817.60;;;;;;4997396;28;20417;-65
2021/05/01 02:35:46;;;;;;;17.42;9.38;;;461.60;1817.60;;;;;;5014827;28;20439;-66
2021/05/01 02:38:12;;;;;;;16.88;10.60;;;461.60;1843.20;;;;;;5014831;28;20109;-66
2021/05/01 02:40:39;;;;;;;17.70;10.75;;;461.50;1843.20;;;;;;5015008;28;20351;-66
2021/05/01 02:43:09;;;;;;;16.38;10.75;;;461.50;1843.20;;;;;;5014682;28;20415;-65
2021/05/01 02:45:36;;;;;;;18.77;10.10;;;461.50;1843.20;;;;;;5014745;28;20402;-73
2021/05/01 02:48:06;;;;;;;17.52;9.88;;;461.60;1843.20;;;;;;5014649;28;20352;-65
2021/05/01 02:50:32;;;;;;;17.33;10.93;;;461.60;1843.20;;;;;;5014660;28;20370;-66
2021/05/01 02:52:59;;;;;;;21.85;12.02;;;461.60;1843.20;;;;;;5014824;28;20471;-66
2021/05/01 02:55:25;;;;;;;18.50;11.13;;;461.50;1868.80;;;;;;5014440;28;20367;-66
2021/05/01 02:57:52;;;;;;;19.00;10.80;;;461.50;1868.80;;;;;;5014746;28;20378;-65
2021/05/01 03:00:22;;;;;;;19.83;11.00;;;461.60;1843.20;;;;;;5014448;28;20018;-66
2021/05/01 03:02:48;;;;;;;21.40;11.20;;;461.50;1843.20;;;;;;5014395;28;20410;-73
2021/05/01 03:05:15;;;;;;;15.02;11.38;;;461.50;1868.80;;;;;;5014374;28;20370;-66
2021/05/01 03:07:42;;;;;;;16.88;10.85;;;461.50;1868.80;;;;;;5014393;28;20402;-65
2021/05/01 03:10:14;;;;;;;16.73;11.23;;;461.40;1868.80;;;;;;4996682;28;20463;-66
2021/05/01 03:12:41;;;;;;;21.75;11.15;;;461.50;1868.80;;;;;;5014642;28;20340;-65
2021/05/01 03:15:10;;;;;;;17.08;10.48;;;461.50;1868.80;;;;;;5013628;28;20407;-66
2021/05/01 03:17:37;;;;;;;18.75;10.82;;;461.50;1868.80;;;;;;5014070;28;20406;-66
2021/05/01 03:20:05;;;;;;;24.73;11.68;;;461.50;1868.80;;;;;;5014102;28;20428;-66
2021/05/01 03:22:31;;;;;;;27.75;11.80;;;461.50;1868.80;;;;;;5014035;28;20402;-66
2021/05/01 03:24:57;;;;;;;16.58;11.02;;;461.50;1894.40;;;;;;5014048;28;20375;-69
2021/05/01 03:27:23;;;;;;;15.43;10.88;;;461.40;1894.40;;;;;;5014303;28;20413;-66
2021/05/01 03:29:50;;;;;;;19.08;11.57;;;461.50;1920.00;;;;;;5013894;28;20418;-74
2021/05/01 03:32:16;;;;;;;16.17;11.32;;;461.50;1920.00;;;;;;5013995;28;20415;-66
2021/05/01 03:34:42;;;;;;;16.92;11.10;;;461.50;1920.00;;;;;;5013948;28;20336;-66
2021/05/01 03:37:09;;;;;;;15.95;10.70;;;461.50;1920.00;;;;;;5013781;28;20475;-74
2021/05/01 03:39:35;;;;;;;17.52;12.15;;;461.50;1920.00;;;;;;5013834;28;20431;-66
2021/05/01 03:42:02;;;;;;;20.98;13.07;;;461.30;1945.60;;;;;;5013836;28;20374;-66
2021/05/01 03:44:28;;;;;;;20.38;13.00;;;461.20;1971.20;;;;;;4996293;28;20395;-74
2021/05/01 03:46:55;;;;;;;25.90;13.20;;;461.10;2022.40;;;;;;5014024;28;20026;-67
2021/05/01 03:49:22;;;;;;;30.00;14.10;;;461.10;2022.40;;;;;;5013779;28;20362;-67
2021/05/01 03:51:49;;;;;;;23.98;14.38;;;461.00;2073.60;;;;;;5013739;28;20378;-74
2021/05/01 03:54:16;;;;;;;22.60;13.35;;;461.10;2073.60;;;;;;5013760;28;20363;-73
2021/05/01 03:56:42;;;;;;;20.85;12.45;;;461.10;2073.60;;;;;;5013675;28;20476;-67
2021/05/01 03:59:08;;;;;;;20.30;12.35;;;461.10;2099.20;;;;;;5013683;28;20455;-67
2021/05/01 04:01:34;;;;;;;18.08;11.13;;;461.00;2073.60;;;;;;5013912;28;20363;-67
2021/05/01 04:04:00;;;;;;;19.00;11.60;;;461.00;2048.00;;;;;;5013546;28;20362;-68
2021/05/01 04:06:26;;;;;;;18.83;11.02;;;461.10;2048.00;;;;;;5013549;28;20455;-72
2021/05/01 04:08:52;;;;;;;17.85;10.20;;;461.10;2048.00;;;;;;5013573;28;20459;-68
2021/05/01 04:11:19;;;;;;;18.75;11.10;;;461.10;2048.00;;;;;;5013757;28;20026;-67
2021/05/01 04:13:47;;;;;;;20.27;10.43;;;461.10;2048.00;;;;;;5013812;28;20419;-67
2021/05/01 04:16:17;;;;;;;18.73;10.70;;;461.10;2073.60;;;;;;5013433;28;20389;-66
2021/05/01 04:18:46;;;;;;;18.30;10.55;;;461.10;2073.60;;;;;;5013475;28;20432;-66
2021/05/01 04:21:12;;;;;;;18.25;9.63;;;461.00;2048.00;;;;;;5013418;28;20344;-66
2021/05/01 04:23:38;;;;;;;14.93;9.88;;;461.00;2073.60;;;;;;5013387;28;20383;-66
2021/05/01 04:26:04;;;;;;;17.63;10.57;;;461.00;2073.60;;;;;;5015404;28;20344;-66
2021/05/01 04:28:31;;;;;;;20.27;10.23;;;461.00;2073.60;;;;;;5017164;28;20378;-74
2021/05/01 04:30:57;;;;;;;33.20;15.45;;;461.00;2073.60;;;;;;4999653;28;20375;-67
2021/05/01 04:33:24;;;;;;;16.95;9.82;;;461.00;2048.00;;;;;;5017161;28;20394;-67
2021/05/01 04:35:50;;;;;;;14.05;9.48;;;461.00;2048.00;;;;;;5017103;28;20367;-66
2021/05/01 04:38:16;;;;;;;17.65;10.55;;;461.00;2073.60;;;;;;5017157;28;20375;-66
2021/05/01 04:40:44;;;;;;;15.77;9.38;;;461.00;2073.60;;;;;;5017001;28;20409;-67
2021/05/01 04:43:11;;;;;;;15.48;9.52;;;461.00;2099.20;;;;;;5017111;28;20370;-66
2021/05/01 04:45:38;;;;;;;16.95;11.15;;;461.00;2073.60;;;;;;5016967;28;20030;-66
2021/05/01 04:48:06;;;;;;;16.13;10.93;;;461.00;2150.40;;;;;;5016930;28;20390;-66
2021/05/01 04:50:32;;;;;;;18.38;10.98;;;460.80;2176.00;;;;;;5016951;28;20537;-67
2021/05/01 04:52:59;;;;;;;20.75;10.77;;;460.80;2176.00;;;;;;5016742;28;20378;-66
2021/05/01 04:55:26;;;;;;;20.80;11.23;;;460.80;2150.40;;;;;;5016720;28;20382;-66
2021/05/01 04:57:54;;;;;;;14.70;10.57;;;460.80;2176.00;;;;;;5016713;28;20351;-66
2021/05/01 05:00:22;;;;;;;20.50;10.07;;;461.00;2150.40;;;;;;5016657;28;20445;-74
2021/05/01 05:02:49;;;;;;;20.50;10.82;;;461.00;2124.80;;;;;;5016723;28;20489;-65
2021/05/01 05:05:17;;;;;;;20.73;10.52;;;461.00;2150.40;;;;;;5016856;28;20029;-66
2021/05/01 05:07:43;;;;;;;20.77;10.90;;;461.00;2124.80;;;;;;5016602;28;20441;-65
2021/05/01 05:10:11;;;;;;;18.67;11.38;;;461.00;2150.40;;;;;;5016570;28;20463;-65
2021/05/01 05:12:37;;;;;;;17.73;11.48;;;461.10;2124.80;;;;;;5016738;28;20437;-65
2021/05/01 05:15:05;;;;;;;18.65;11.80;;;461.20;2150.40;;;;;;5016476;28;20355;-65
2021/05/01 05:17:31;;;;;;;19.23;12.05;;;461.20;2150.40;;;;;;5016263;28;20406;-65
2021/05/01 05:19:57;;;;;;;18.65;11.35;;;461.20;2150.40;;;;;;5016579;28;20336;-65
2021/05/01 05:22:23;;;;;;;19.52;11.77;;;461.20;2150.40;;;;;;5016246;28;20375;-65
2021/05/01 05:24:50;;;;;;;20.17;11.63;;;461.20;2124.80;;;;;;5016242;28;20348;-65
2021/05/01 05:27:16;;;;;;;18.40;10.60;;;461.20;2124.80;;;;;;5016169;28;20370;-65
2021/05/01 05:29:49;;;;;;;18.67;11.65;;;461.20;2150.40;;;;;;5015997;28;20391;-65
2021/05/01 05:32:16;;;;;;;19.60;11.90;;;461.20;2150.40;;;;;;5016219;28;20018;-65
2021/05/01 05:34:42;;;;;;;17.23;12.68;;;461.30;2150.40;;;;;;4998457;28;20516;-66
2021/05/01 05:37:08;;;;;;;17.60;12.85;;;461.30;2150.40;;;;;;5015343;28;20375;-65
2021/05/01 05:39:34;;;;;;;23.80;13.45;;;461.40;2124.80;;;;;;5015961;28;20396;-65
2021/05/01 05:42:01;;;;;;;19.08;12.75;;;461.30;2150.40;;;;;;5016005;28;20373;-65
2021/05/01 05:44:28;;;;;;;21.42;12.27;;;461.40;2124.80;;;;;;5015986;28;20352;-65
2021/05/01 05:46:54;;;;;;;17.75;12.43;;;461.40;2124.80;;;;;;5015814;28;20489;-65
2021/05/01 05:49:20;;;;;;;16.33;11.88;;;461.50;2099.20;;;;;;5016061;28;20407;-65
2021/05/01 05:51:46;;;;;;;20.50;11.30;;;461.50;2124.80;;;;;;5015822;28;20398;-65
2021/05/01 05:54:13;;;;;;;21.50;12.10;;;461.50;2124.80;;;;;;5015725;28;20394;-65
2021/05/01 05:56:39;;;;;;;19.67;11.25;;;461.60;2124.80;;;;;;5015856;28;20453;-65
2021/05/01 05:59:07;;;;;;;17.33;12.25;;;461.60;2099.20;;;;;;5015640;28;20026;-66
2021/05/01 06:01:37;;;;;;;24.65;12.30;;;486.40;2099.20;;;;;;5015523;28;20453;-65
2021/05/01 06:04:08;;;;;;;17.50;10.80;;;486.40;2099.20;;;;;;5015695;28;20390;-75
2021/05/01 06:06:38;;;;;;;21.85;11.68;;;486.40;2073.60;;;;;;5015944;28;20395;-68
2021/05/01 06:09:04;;;;;;;16.45;11.23;;;486.50;2073.60;;;;;;5015494;28;20366;-74
2021/05/01 06:14:55;;;;;;;26.23;10.98;;;486.70;2073.60;;;;;;5015332;28;20076;-66
2021/05/01 06:17:21;;;;;;;17.50;10.40;;;486.80;2048.00;;;;;;5015065;28;20395;-75
2021/05/01 06:19:49;;;;;;;17.23;10.82;;;486.80;2022.40;;;;;;4997597;28;20418;-74
2021/05/01 06:22:15;;;;;;;19.10;10.70;;;486.90;2073.60;;;;;;5015377;28;20454;-66
2021/05/01 06:24:42;;;;;;;17.23;10.75;;;487.00;2048.00;;;;;;5015112;28;20030;-67
2021/05/01 06:27:10;;;;;;;16.23;10.85;;;487.10;2048.00;;;;;;5015234;28;20360;-75
2021/05/01 06:29:39;;;;;;;17.92;10.98;;;487.10;2048.00;;;;;;5014947;28;20372;-66
2021/05/01 06:32:07;;;;;;;21.98;11.10;;;487.20;2022.40;;;;;;5014848;28;20488;-72
2021/05/01 06:34:33;;;;;;;16.08;10.05;;;487.20;2048.00;;;;;;5014796;28;20408;-67
2021/05/01 06:37:02;;;;;;;20.42;10.32;;;487.30;2022.40;;;;;;5015224;28;20438;-66
2021/05/01 06:39:32;;;;;;;17.58;10.77;;;512.10;1971.20;;;;;;5015312;28;20351;-74
2021/05/01 06:42:01;;;;;;;18.83;10.65;;;512.10;1996.80;;;;;;5014664;28;20356;-74
2021/05/01 06:44:42;;;;;;;16.20;9.48;;;512.20;1996.80;;;;;;4997144;28;20371;-65
2021/05/01 06:47:15;;;;;;;16.40;9.38;;;512.20;1971.20;;;;;;4997059;28;20374;-73
2021/05/01 06:50:10;;;;;;;16.20;9.10;;;512.30;1945.60;;;;;;5014046;28;20431;-74
2021/05/01 06:52:41;;;;;;;20.23;9.63;;;512.50;1945.60;;;;;;5014861;28;20348;-73
2021/05/01 06:55:08;;;;;;;16.48;9.15;;;512.50;1971.20;;;;;;5014488;28;20455;-73
2021/05/01 06:57:38;;;;;;;18.40;9.82;;;512.50;1971.20;;;;;;4996701;28;20030;-75
2021/05/01 07:00:08;;;;;;;15.20;9.73;;;512.60;1945.60;;;;;;5014306;28;20463;-71
2021/05/01 07:02:40;;;;;;;14.90;9.63;;;512.60;1945.60;;;;;;5014279;28;20431;-74
2021/05/01 07:05:36;;;;;;;19.70;10.60;;;512.80;1945.60;;;;;;5014281;28;20401;-71
2021/05/01 07:08:03;;;;;;;20.30;10.93;;;537.60;1945.60;;;;;;4997631;28;20397;-70
2021/05/01 07:10:29;;;;;;;15.80;10.02;;;537.60;1920.00;;;;;;5014585;28;20359;-72
2021/05/01 07:12:55;;;;;;;14.55;9.95;;;537.70;1971.20;;;;;;5014239;28;20356;-67
2021/05/01 07:15:22;;;;;;;32.95;17.17;;;537.80;1945.60;;;;;;5014138;28;20450;-72
2021/05/01 07:17:53;;;;;;;28.40;16.60;;;537.80;1920.00;;;;;;5013982;28;20395;-72
2021/05/01 07:20:21;;;;;;;24.92;10.68;;;537.90;1894.40;;;;;;5014441;28;20471;-72
2021/05/01 07:22:50;;;;;;;15.32;10.68;;;538.10;1894.40;;;;;;5014080;28;20366;-71
2021/05/01 07:25:17;;;;;;;21.85;11.27;;;538.20;1920.00;;;;;;5014050;28;20378;-73
2021/05/01 07:27:58;;;;;;;24.88;16.52;;;538.40;1894.40;;;;;;5013921;28;20418;-73
2021/05/01 07:30:28;;;;;;;17.35;11.25;;;538.50;1920.00;;;;;;5013999;28;20108;-73
2021/05/01 07:33:01;;;;;;;18.65;12.55;;;563.20;1894.40;;;;;;5013681;28;20377;-69
2021/05/01 07:35:31;;;;;;;23.13;11.13;;;563.20;1894.40;;;;;;5014272;28;20410;-67
2021/05/01 07:37:57;;;;;;;15.82;11.85;;;563.30;1894.40;;;;;;5014338;28;20409;-71
2021/05/01 07:40:30;;;;;;;25.80;11.48;;;563.40;1945.60;;;;;;5014042;28;20377;-73
2021/05/01 07:42:56;;;;;;;21.50;12.52;;;563.50;1920.00;;;;;;5014448;28;20021;-69
2021/05/01 07:45:24;;;;;;;19.55;11.95;;;563.60;1945.60;;;;;;5013751;28;20347;-69
2021/05/01 07:47:53;;;;;;;19.05;11.07;;;563.70;1894.40;;;;;;5013718;28;20430;-74
2021/05/01 07:50:19;;;;;;;23.30;11.82;;;563.70;1868.80;;;;;;5013786;28;20366;-70
2021/05/01 07:52:46;;;;;;;14.90;9.85;;;563.70;1843.20;;;;;;5013756;28;20417;-64
2021/05/01 07:55:13;;;;;;;19.10;11.48;;;563.80;1817.60;;;;;;5013708;28;20400;-64
2021/05/01 07:57:39;;;;;;;18.83;11.75;;;563.90;1843.20;;;;;;5013868;28;20375;-66
2021/05/01 08:00:07;;;;;;;24.70;11.23;;;563.90;1843.20;;;;;;5015219;28;20435;-65
2021/05/01 08:02:35;;;;;;;19.55;10.82;;;564.10;1843.20;;;;;;5020223;28;20383;-67
2021/05/01 08:05:04;;;;;;;19.48;10.98;;;564.10;1817.60;;;;;;5020088;28;20398;-67
2021/05/01 08:07:30;;;;;;;17.67;10.70;;;564.10;1817.60;;;;;;5020129;28;20348;-65
2021/05/01 08:09:56;;;;;;;18.75;11.13;;;588.80;1792.00;;;;;;5020401;28;20097;-63
2021/05/01 08:12:22;;;;;;;26.90;12.00;;;588.80;1766.40;;;;;;5020083;28;20422;-64
2021/05/01 08:14:48;;;;;;;19.95;10.20;;;588.80;1792.00;;;;;;5020099;28;20415;-67
2021/05/01 08:17:14;;;;;;;17.52;11.38;;;588.90;1792.00;;;;;;5019929;28;20415;-67
2021/05/01 08:19:40;;;;;;;20.83;12.45;;;589.10;1766.40;;;;;;5020287;28;20332;-65
2021/05/01 08:22:06;;;;;;;18.40;11.93;;;589.10;1817.60;;;;;;5019689;28;20426;-65
2021/05/01 08:24:32;;;;;;;23.55;12.43;;;589.10;1792.00;;;;;;5019270;28;20366;-73
2021/05/01 08:26:58;;;;;;;21.10;14.20;;;589.20;1817.60;;;;;;5019704;28;20022;-63
2021/05/01 08:29:25;;;;;;;18.98;11.82;;;589.30;1792.00;;;;;;5019561;28;20069;-74
2021/05/01 08:31:51;;;;;;;14.82;10.82;;;589.30;1792.00;;;;;;5019779;28;20402;-63
2021/05/01 08:34:17;;;;;;;17.33;11.07;;;589.30;1792.00;;;;;;5019813;28;20344;-64
2021/05/01 08:36:43;;;;;;;20.83;11.55;;;589.30;1766.40;;;;;;5020355;28;20033;-73
2021/05/01 08:39:09;;;;;;;18.08;11.32;;;589.40;1740.80;;;;;;5019819;28;20435;-63
2021/05/01 08:41:35;;;;;;;16.35;9.75;;;589.40;1766.40;;;;;;5020046;28;20374;-66
2021/05/01 08:44:09;;;;;;;18.23;11.40;;;589.50;1715.20;;;;;;5019779;28;20402;-64
2021/05/01 08:46:39;;;;;;;20.75;13.55;;;589.50;1766.40;;;;;;5019872;28;20366;-64
2021/05/01 08:49:08;;;;;;;21.35;13.10;;;589.70;1766.40;;;;;;5019786;28;20471;-65
2021/05/01 08:51:35;;;;;;;18.95;10.30;;;589.70;1792.00;;;;;;5020759;28;20350;-64
2021/05/01 08:54:01;;;;;;;21.33;10.32;;;589.70;1740.80;;;;;;5019677;28;20370;-64
2021/05/01 08:56:27;;;;;;;17.80;8.75;;;589.70;1740.80;;;;;;5019569;28;20352;-64
2021/05/01 08:58:58;;;;;;;17.98;11.07;;;614.40;1715.20;;;;;;5019694;28;20374;-73
2021/05/01 09:01:27;;;;;;;23.15;11.98;;;614.40;1715.20;;;;;;5019562;28;20406;-73
2021/05/01 09:03:54;;;;;;;24.23;10.98;;;614.50;1689.60;;;;;;5019499;28;20406;-65
2021/05/01 09:06:25;;;;;;;30.98;16.52;;;614.40;1689.60;;;;;;5019753;28;20414;-62
2021/05/01 09:08:59;;;;;;;23.42;13.38;;;614.40;1740.80;;;;;;5019477;28;20411;-66
2021/05/01 09:11:39;;;;;;;18.17;13.18;;;614.40;1715.20;;;;;;5018617;28;20344;-69
2021/05/01 09:14:18;;;;;;;23.65;12.30;;;614.50;1715.20;;;;;;5016215;28;20371;-67
2021/05/01 09:16:56;;;;;;;20.45;12.40;;;614.60;1689.60;;;;;;5016647;28;20378;-66
2021/05/01 09:19:36;;;;;;;14.07;10.25;;;614.70;1715.20;;;;;;5016316;28;20356;-65
2021/05/01 09:22:13;;;;;;;17.23;10.18;;;614.70;1664.00;;;;;;5016620;28;20395;-71
2021/05/01 09:24:43;;;;;;;24.27;9.63;;;614.80;1638.40;;;;;;5016215;28;20032;-63
2021/05/01 09:27:16;;;;;;;16.60;9.32;;;614.80;1587.20;;;;;;5016559;28;20403;-66
2021/05/01 09:29:42;;;;;;;17.88;10.77;;;614.90;1638.40;;;;;;5023856;28;20393;-68
2021/05/01 09:32:24;;;;;;;14.80;9.75;;;614.90;1638.40;;;;;;5036236;28;20354;-68
2021/05/01 09:34:52;;;;;;;14.98;8.95;;;614.90;1638.40;;;;;;5035782;28;20405;-67
2021/05/01 09:37:21;;;;;;;16.38;10.70;;;615.00;1638.40;;;;;;5035727;28;20041;-66
2021/05/01 09:39:53;;;;;;;13.57;9.07;;;615.00;1612.80;;;;;;5036108;28;20375;-65
2021/05/01 09:42:21;;;;;;;15.40;10.35;;;615.10;1561.60;;;;;;5036165;28;20450;-65
2021/05/01 09:44:47;;;;;;;18.63;11.20;;;615.00;1561.60;;;;;;5035672;28;20413;-72
2021/05/01 09:47:19;;;;;;;16.67;10.85;;;615.10;1587.20;;;;;;5035727;28;20397;-65
2021/05/01 09:49:46;;;;;;;23.85;15.07;;;615.10;1536.00;;;;;;5035651;28;20374;-64
2021/05/01 09:52:16;;;;;;;26.40;16.48;;;615.00;1561.60;;;;;;5035618;28;20474;-70
2021/05/01 09:54:43;;;;;;;19.00;10.65;;;615.10;1561.60;;;;;;5035455;28;20540;-64
2021/05/01 09:57:20;;;;;;;16.67;10.18;;;615.10;1561.60;;;;;;5035308;28;20444;-66
2021/05/01 09:59:54;;;;;;;16.60;11.18;;;615.10;1536.00;;;;;;5035746;28;20438;-66
2021/05/01 10:02:23;;;;;;;20.48;9.98;;;615.20;1510.40;;;;;;5035280;28;20390;-68
2021/05/01 10:05:06;;;;;;;24.60;12.93;;;615.20;1561.60;;;;;;5035210;28;20035;-69
2021/05/01 10:07:35;;;;;;;20.73;8.55;;;615.20;1510.40;;;;;;5035134;28;20482;-66
2021/05/01 10:10:03;;;;;;;15.60;8.23;;;615.30;1484.80;;;;;;5035098;28;20366;-64
2021/05/01 10:12:37;;;;;;;13.25;7.35;;;615.10;1484.80;;;;;;5035477;28;20422;-66
2021/05/01 10:15:18;;;;;;;18.45;9.70;;;615.10;1510.40;;;;;;5034879;28;20388;-65
2021/05/01 10:17:49;;;;;;;38.78;31.17;;;615.10;1536.00;;;;;;5035038;28;20347;-66
2021/05/01 10:20:16;;;;;;;32.30;15.93;;;615.10;1536.00;;;;;;5033673;28;20362;-65
2021/05/01 10:22:47;;;;;;;24.23;12.98;;;615.10;1536.00;;;;;;5034781;28;20339;-67
2021/05/01 10:25:28;;;;;;;16.95;9.23;;;615.20;1561.60;;;;;;5034840;28;20455;-66
2021/05/01 10:28:02;;;;;;;16.73;9.93;;;615.30;1510.40;;;;;;5035049;28;20347;-65
2021/05/01 10:30:54;;;;;;;18.50;9.77;;;640.00;1510.40;;;;;;5034668;28;20386;-65
2021/05/01 10:33:24;;;;;;;19.73;9.27;;;640.00;1510.40;;;;;;5035259;28;20354;-64
2021/05/01 10:36:19;;;;;;;17.63;10.25;;;640.10;1536.00;;;;;;5034472;28;20377;-66
2021/05/01 10:38:45;;;;;;;22.25;8.68;;;640.10;1484.80;;;;;;5034453;28;20429;-64
2021/05/01 10:41:20;;;;;;;21.33;9.43;;;640.10;1510.40;;;;;;5034521;28;20363;-69
2021/05/01 10:43:52;;;;;;;26.38;15.77;;;640.10;1510.40;;;;;;5033491;28;20370;-69
2021/05/01 10:46:29;;;;;;;20.90;11.73;;;640.20;1510.40;;;;;;5034204;28;20366;-67
2021/05/01 10:48:58;;;;;;;20.73;10.02;;;640.20;1484.80;;;;;;5034910;28;20354;-69
2021/05/01 10:51:30;;;;;;;37.50;10.57;;;640.30;1484.80;;;;;;5034336;28;20409;-67
2021/05/01 10:54:13;;;;;;;19.15;9.23;;;640.30;1484.80;;;;;;5034478;28;20449;-67
2021/05/01 10:56:46;;;;;;;15.32;7.70;;;640.40;1510.40;;;;;;5034170;28;20382;-68
2021/05/01 10:59:17;;;;;;;14.88;7.82;;;640.40;1433.60;;;;;;5032868;28;20410;-66
2021/05/01 11:01:47;;;;;;;32.15;9.43;;;640.50;1459.20;;;;;;5034075;28;20366;-65
2021/05/01 11:04:27;;;;;;;26.27;10.90;;;640.50;1459.20;;;;;;5034025;28;20366;-69
2021/05/01 11:07:39;;;;;;;44.85;8.43;;;640.50;1484.80;;;;;;5033982;28;20344;-67
2021/05/01 11:10:07;;;;;;;14.13;8.48;;;640.50;1408.00;;;;;;4992548;28;20420;-68
2021/05/01 11:12:38;;;;;;;16.67;7.60;;;640.60;1459.20;;;;;;4992576;28;20076;-64
2021/05/01 11:15:11;;;;;;;18.10;9.20;;;640.60;1459.20;;;;;;4992487;28;20475;-68
2021/05/01 11:17:46;;;;;;;21.48;11.68;;;640.70;1408.00;;;;;;4992509;28;20473;-64
2021/05/01 11:20:15;;;;;;;12.82;6.22;;;640.80;1408.00;;;;;;4992675;28;20474;-67
2021/05/01 11:22:43;;;;;;;12.18;6.53;;;640.70;1382.40;;;;;;4992296;28;20368;-65
2021/05/01 11:25:12;;;;;;;18.45;6.70;;;640.70;1408.00;;;;;;4992252;28;20353;-67
2021/05/01 11:27:40;;;;;;;15.40;7.60;;;640.70;1433.60;;;;;;4992421;28;20434;-68
2021/05/01 11:30:08;;;;;;;21.27;8.80;;;640.80;1382.40;;;;;;4992107;28;20412;-68
2021/05/01 11:32:36;;;;;;;13.57;5.07;;;640.80;1408.00;;;;;;4992272;28;20438;-66
2021/05/01 11:35:08;;;;;;;13.15;4.55;;;640.80;1356.80;;;;;;4975703;28;20434;-65
2021/05/01 11:37:42;;;;;;;12.80;5.17;;;640.80;1305.60;;;;;;4992124;28;20387;-65
2021/05/01 11:40:11;;;;;;;12.23;5.30;;;640.80;1305.60;;;;;;4992383;28;20391;-68
2021/05/01 11:42:38;;;;;;;19.80;8.43;;;640.80;1356.80;;;;;;4992181;28;20372;-66
2021/05/01 11:45:12;;;;;;;24.90;5.20;;;640.80;1305.60;;;;;;5003052;28;20409;-67
2021/05/01 11:47:47;;;;;;;63.95;47.35;;;640.80;1305.60;;;;;;5033742;28;20461;-69
2021/05/01 11:50:15;;;;;;;22.05;11.45;;;640.70;1331.20;;;;;;5033451;28;20370;-68
2021/05/01 11:53:05;;;;;;;26.08;6.50;;;640.70;1305.60;;;;;;5033437;28;20531;-69
2021/05/01 11:55:40;;;;;;;11.00;4.55;;;640.70;1305.60;;;;;;5033470;28;20408;-65
2021/05/01 11:58:09;;;;;;;21.42;6.00;;;640.80;1356.80;;;;;;5033782;28;20403;-66
2021/05/01 12:00:40;;;;;;;12.38;6.68;;;640.70;1356.80;;;;;;5033285;28;20415;-68
2021/05/01 12:03:23;;;;;;;14.02;4.97;;;640.80;1331.20;;;;;;5033819;28;20366;-67
2021/05/01 12:06:21;;;;;;;13.73;5.70;;;640.70;1305.60;;;;;;5033604;28;20384;-66
2021/05/01 12:08:48;;;;;;;17.08;6.00;;;640.60;1356.80;;;;;;5029670;28;20442;-68
2021/05/01 12:11:19;;;;;;;13.32;5.90;;;640.70;1331.20;;;;;;5033152;28;20414;-68
2021/05/01 12:13:47;;;;;;;13.85;4.38;;;640.70;1280.00;;;;;;5032333;28;20431;-67